createdAt,value
2022-12-12T00:01:57.852Z,965.91
2022-12-12T00:07:28.958Z,965.97
2022-12-12T00:13:00.856Z,966.02
2022-12-12T00:18:32.469Z,965.93
2022-12-12T00:24:04.538Z,965.84
2022-12-12T00:29:36.026Z,965.78
2022-12-12T00:35:07.648Z,965.74
2022-12-12T00:40:39.672Z,965.76
2022-12-12T00:46:11.224Z,965.72
2022-12-12T00:51:42.794Z,965.75
2022-12-12T00:57:14.422Z,965.88
2022-12-12T01:02:50.636Z,965.84
2022-12-12T01:08:22.394Z,965.71
2022-12-12T01:13:53.965Z,965.64
2022-12-12T01:19:25.676Z,965.6
2022-12-12T01:24:57.593Z,965.7
2022-12-12T01:30:29.165Z,965.58
2022-12-12T01:36:01.182Z,965.59
2022-12-12T01:41:32.600Z,965.21
2022-12-12T01:47:04.353Z,965.27
2022-12-12T01:52:36.172Z,965.45
2022-12-12T01:58:08.001Z,965.19
2022-12-12T02:03:43.836Z,965.25
2022-12-12T02:09:15.596Z,964.93
2022-12-12T02:14:47.496Z,964.64
2022-12-12T02:20:19.205Z,964.27
2022-12-12T02:25:50.793Z,963.71
2022-12-12T02:31:22.699Z,963.59
2022-12-12T02:36:54.446Z,963.22
2022-12-12T02:42:26.146Z,962.89
2022-12-12T02:47:57.698Z,962.91
2022-12-12T02:53:29.678Z,962.96
2022-12-12T02:59:01.433Z,962.69
2022-12-12T03:04:37.234Z,962.21
2022-12-12T03:10:08.941Z,962.28
2022-12-12T03:15:40.736Z,962.23
2022-12-12T03:21:12.369Z,962.04
2022-12-12T03:26:44.170Z,961.9
2022-12-12T03:32:15.802Z,961.64
2022-12-12T03:37:47.674Z,961.64
2022-12-12T03:43:19.317Z,961.35
2022-12-12T03:48:51.205Z,961.43
2022-12-12T03:54:22.645Z,961.61
2022-12-12T03:59:54.298Z,961.49
2022-12-12T04:05:30.618Z,961.56
2022-12-12T04:11:02.257Z,961.74
2022-12-12T04:16:34.014Z,961.91
2022-12-12T04:22:05.659Z,962.17
2022-12-12T04:27:37.526Z,962.1
2022-12-12T04:33:09.272Z,962.4
2022-12-12T04:38:41.112Z,962.53
2022-12-12T04:44:12.634Z,962.84
2022-12-12T04:49:44.418Z,963.12
2022-12-12T04:55:16.896Z,963.0
2022-12-12T05:00:48.001Z,963.35
2022-12-12T05:06:23.881Z,963.18
2022-12-12T05:11:55.652Z,963.41
2022-12-12T05:17:27.484Z,963.41
2022-12-12T05:22:59.253Z,963.32
2022-12-12T05:28:30.912Z,963.52
2022-12-12T05:34:02.573Z,963.35
2022-12-12T05:39:35.054Z,963.5
2022-12-12T05:45:06.052Z,963.6
2022-12-12T05:50:37.581Z,962.5
2022-12-12T05:56:09.351Z,962.4
2022-12-12T06:01:41.130Z,963.2
2022-12-12T06:07:19.348Z,964.02
2022-12-12T06:12:50.844Z,964.05
2022-12-12T06:18:22.813Z,964.3
2022-12-12T06:23:54.417Z,963.85
2022-12-12T06:29:26.180Z,964.35
2022-12-12T06:34:57.994Z,964.25
2022-12-12T06:40:29.472Z,964.37
2022-12-12T06:46:01.171Z,964.78
2022-12-12T06:51:32.869Z,964.5
2022-12-12T06:57:04.761Z,964.73
2022-12-12T07:02:36.654Z,964.58
2022-12-12T07:08:15.440Z,964.84
2022-12-12T07:13:46.389Z,964.95
2022-12-12T07:19:18.233Z,964.8
2022-12-12T07:24:49.713Z,965.1
2022-12-12T07:30:21.533Z,964.63
2022-12-12T07:35:53.328Z,964.4
2022-12-12T07:41:24.886Z,963.85
2022-12-12T07:46:56.961Z,963.29
2022-12-12T07:52:28.446Z,962.77
2022-12-12T07:58:00.219Z,963.98
2022-12-12T08:03:31.780Z,963.74
2022-12-12T08:09:08.029Z,965.28
2022-12-12T08:14:39.584Z,965.43
2022-12-12T08:20:11.448Z,965.93
2022-12-12T08:25:43.096Z,965.89
2022-12-12T08:31:14.877Z,966.5
2022-12-12T08:36:46.587Z,965.21
2022-12-12T08:42:18.412Z,964.59
2022-12-12T08:47:50.100Z,966.52
2022-12-12T08:53:21.790Z,966.22
2022-12-12T08:58:53.575Z,966.94
2022-12-12T09:04:25.243Z,966.48
2022-12-12T09:10:01.384Z,966.87
2022-12-12T09:15:32.944Z,967.16
2022-12-12T09:21:04.805Z,966.44
2022-12-12T09:26:37.047Z,967.36
2022-12-12T09:32:08.288Z,966.77
2022-12-12T09:37:39.944Z,966.98
2022-12-12T09:43:11.658Z,967.21
2022-12-12T09:48:43.626Z,967.96
2022-12-12T09:54:15.422Z,968.9
2022-12-12T09:59:46.935Z,969.19
2022-12-12T10:05:18.600Z,968.64
2022-12-12T10:10:54.930Z,968.16
2022-12-12T10:16:26.806Z,968.53
2022-12-12T10:21:58.214Z,967.55
2022-12-12T10:27:29.921Z,966.11
2022-12-12T10:33:01.877Z,967.71
2022-12-12T10:38:33.305Z,967.65
2022-12-12T10:44:04.970Z,967.99
2022-12-12T10:49:36.877Z,967.45
2022-12-12T10:55:08.382Z,967.34
2022-12-12T11:00:40.293Z,967.48
2022-12-12T11:06:11.837Z,967.57
2022-12-12T11:11:48.056Z,968.59
2022-12-12T11:17:19.838Z,968.21
2022-12-12T11:22:51.400Z,969.79
2022-12-12T11:28:23.173Z,970.48
2022-12-12T11:33:55.614Z,970.21
2022-12-12T11:39:26.657Z,971.66
2022-12-12T11:44:58.758Z,972.89
2022-12-12T11:50:30.020Z,971.91
2022-12-12T11:56:01.906Z,972.45
2022-12-12T12:01:33.785Z,971.79
2022-12-12T12:07:05.445Z,970.95
2022-12-12T12:12:41.589Z,972.03
2022-12-12T12:18:13.237Z,972.7
2022-12-12T12:23:51.066Z,971.4
2022-12-12T12:29:16.868Z,972.12
2022-12-12T12:34:48.500Z,971.48
2022-12-12T12:40:19.981Z,970.79
2022-12-12T12:45:52.008Z,968.41
2022-12-12T12:51:23.964Z,968.16
2022-12-12T12:56:55.316Z,969.71
2022-12-12T13:02:28.466Z,969.34
2022-12-12T13:07:58.700Z,968.73
2022-12-12T13:13:34.730Z,968.74
2022-12-12T13:19:06.514Z,969.01
2022-12-12T13:24:38.220Z,968.7
2022-12-12T13:30:10.268Z,968.41
2022-12-12T13:35:41.732Z,968.29
2022-12-12T13:41:13.675Z,968.0
2022-12-12T13:46:45.314Z,967.65
2022-12-12T13:52:17.448Z,967.5
2022-12-12T13:57:48.636Z,967.4
2022-12-12T14:03:20.520Z,967.0
2022-12-12T14:08:51.997Z,966.78
2022-12-12T14:14:28.062Z,966.81
2022-12-12T14:20:00.040Z,966.86
2022-12-12T14:25:31.747Z,966.95
2022-12-12T14:31:03.676Z,966.71
2022-12-12T14:36:35.220Z,966.57
2022-12-12T14:42:06.841Z,966.53
2022-12-12T14:47:38.629Z,966.42
2022-12-12T14:53:10.385Z,966.22
2022-12-12T14:58:42.357Z,966.34
2022-12-12T15:04:13.897Z,965.21
2022-12-12T15:09:45.590Z,965.51
2022-12-12T15:15:23.787Z,964.67
2022-12-12T15:20:55.267Z,965.15
2022-12-12T15:26:27.015Z,964.86
2022-12-12T15:31:59.193Z,965.03
2022-12-12T15:37:30.259Z,965.2
2022-12-12T15:43:02.131Z,964.95
2022-12-12T15:48:33.928Z,964.91
2022-12-12T15:54:05.559Z,964.8
2022-12-12T15:59:37.261Z,964.99
2022-12-12T16:05:08.997Z,964.9
2022-12-12T16:10:40.559Z,964.86
2022-12-12T16:16:18.906Z,964.66
2022-12-12T16:21:50.521Z,964.36
2022-12-12T16:27:22.217Z,964.22
2022-12-12T16:32:53.890Z,964.49
2022-12-12T16:38:25.959Z,964.22
2022-12-12T16:43:57.700Z,964.07
2022-12-12T16:49:29.379Z,964.36
2022-12-12T16:55:01.016Z,964.46
2022-12-12T17:00:32.974Z,963.91
2022-12-12T17:06:04.343Z,964.19
2022-12-12T17:11:36.164Z,964.23
2022-12-12T17:17:14.239Z,964.27
2022-12-12T17:22:45.940Z,963.98
2022-12-12T17:28:17.665Z,963.72
2022-12-12T17:33:52.158Z,963.68
2022-12-12T17:39:21.132Z,963.76
2022-12-12T17:44:52.874Z,963.44
2022-12-12T17:50:24.689Z,963.5
2022-12-12T17:56:08.704Z,963.65
2022-12-12T18:01:28.534Z,963.72
2022-12-12T18:07:00.077Z,963.18
2022-12-12T18:12:31.660Z,963.48
2022-12-12T18:18:09.858Z,963.29
2022-12-12T18:23:41.414Z,963.35
2022-12-12T18:29:13.155Z,963.64
2022-12-12T18:34:45.172Z,963.6
2022-12-12T18:40:17.495Z,963.53
2022-12-12T18:45:48.463Z,963.37
2022-12-12T18:51:20.895Z,963.14
2022-12-12T18:56:51.824Z,962.71
2022-12-12T19:02:23.688Z,962.2
2022-12-12T19:07:55.815Z,962.65
2022-12-12T19:13:27.132Z,962.13
2022-12-12T19:19:03.316Z,961.95
2022-12-12T19:24:35.614Z,962.18
2022-12-12T19:30:06.950Z,962.37
2022-12-12T19:35:38.765Z,961.88
2022-12-12T19:41:10.387Z,961.64
2022-12-12T19:46:42.406Z,962.24
2022-12-12T19:52:15.393Z,961.71
2022-12-12T19:57:45.346Z,962.02
2022-12-12T20:03:17.306Z,961.66
2022-12-12T20:08:48.865Z,961.94
2022-12-12T20:14:20.660Z,962.15
2022-12-12T20:19:58.908Z,962.01
2022-12-12T20:25:30.457Z,961.86
2022-12-12T20:31:02.297Z,961.5
2022-12-12T20:36:34.217Z,961.51
2022-12-12T20:42:05.589Z,961.6
2022-12-12T20:47:37.324Z,961.65
2022-12-12T20:53:09.242Z,961.17
2022-12-12T20:58:40.774Z,961.35
2022-12-12T21:04:12.567Z,961.28
2022-12-12T21:09:44.221Z,960.53
2022-12-12T21:15:16.843Z,960.51
2022-12-12T21:20:54.025Z,960.93
2022-12-12T21:26:29.931Z,960.56
2022-12-12T21:31:57.657Z,960.07
2022-12-12T21:37:29.140Z,959.67
2022-12-12T21:43:00.974Z,959.91
2022-12-12T21:48:32.728Z,959.81
2022-12-12T21:54:04.638Z,959.17
2022-12-12T21:59:36.237Z,959.65
2022-12-12T22:05:08.714Z,959.94
2022-12-12T22:10:39.971Z,960.45
2022-12-12T22:16:11.693Z,960.29
2022-12-12T22:21:49.686Z,960.25
2022-12-12T22:27:21.245Z,959.89
2022-12-12T22:32:53.004Z,959.89
2022-12-12T22:38:24.847Z,959.35
2022-12-12T22:43:56.612Z,959.14
2022-12-12T22:49:28.257Z,959.11
2022-12-12T22:54:59.856Z,959.7
2022-12-12T23:00:31.468Z,959.04
2022-12-12T23:06:03.303Z,959.15
2022-12-12T23:11:35.152Z,959.35
2022-12-12T23:17:06.661Z,958.7
2022-12-12T23:22:45.017Z,959.01
2022-12-12T23:28:16.608Z,958.87
2022-12-12T23:33:48.200Z,958.49
2022-12-12T23:39:20.064Z,958.9
2022-12-12T23:44:51.829Z,958.87
2022-12-12T23:50:23.437Z,958.84
2022-12-12T23:55:55.170Z,958.84
